sensor_id;sensor_type;location;lat;lon;timestamp;temperature;humidity
15556;DHT22;7879;48.660;9.116;2022-12-19T00:01:56;-3.80;99.90
15556;DHT22;7879;48.660;9.116;2022-12-19T00:04:40;-3.80;99.90
15556;DHT22;7879;48.660;9.116;2022-12-19T00:07:13;-3.80;99.90
15556;DHT22;7879;48.660;9.116;2022-12-19T00:09:44;-3.80;99.90
15556;DHT22;7879;48.660;9.116;2022-12-19T00:12:10;-3.70;99.90
15556;DHT22;7879;48.660;9.116;2022-12-19T00:14:45;-3.70;99.90
15556;DHT22;7879;48.660;9.116;2022-12-19T00:17:12;-3.70;99.90
15556;DHT22;7879;48.660;9.116;2022-12-19T00:19:39;-3.70;99.90
15556;DHT22;7879;48.660;9.116;2022-12-19T00:22:05;-3.70;99.90
15556;DHT22;7879;48.660;9.116;2022-12-19T00:24:36;-3.70;99.90
15556;DHT22;7879;48.660;9.116;2022-12-19T00:27:03;-3.80;99.90
15556;DHT22;7879;48.660;9.116;2022-12-19T00:29:30;-3.70;99.90
15556;DHT22;7879;48.660;9.116;2022-12-19T00:31:57;-3.70;99.90
15556;DHT22;7879;48.660;9.116;2022-12-19T00:34:24;-3.70;99.90
15556;DHT22;7879;48.660;9.116;2022-12-19T00:36:50;-3.70;99.90
15556;DHT22;7879;48.660;9.116;2022-12-19T00:39:17;-3.60;99.90
15556;DHT22;7879;48.660;9.116;2022-12-19T00:41:44;-3.60;99.90
15556;DHT22;7879;48.660;9.116;2022-12-19T00:44:12;-3.60;99.90
15556;DHT22;7879;48.660;9.116;2022-12-19T00:46:39;-3.60;99.90
15556;DHT22;7879;48.660;9.116;2022-12-19T00:49:06;-3.60;99.90
15556;DHT22;7879;48.660;9.116;2022-12-19T00:51:36;-3.60;99.90
15556;DHT22;7879;48.660;9.116;2022-12-19T00:54:03;-3.50;99.90
15556;DHT22;7879;48.660;9.116;2022-12-19T00:56:34;-3.40;99.90
15556;DHT22;7879;48.660;9.116;2022-12-19T00:59:04;-3.40;99.90
15556;DHT22;7879;48.660;9.116;2022-12-19T01:01:33;-3.20;99.90
15556;DHT22;7879;48.660;9.116;2022-12-19T01:04:02;-3.20;99.90
15556;DHT22;7879;48.660;9.116;2022-12-19T01:06:50;-3.20;99.90
15556;DHT22;7879;48.660;9.116;2022-12-19T01:09:17;-3.20;99.90
15556;DHT22;7879;48.660;9.116;2022-12-19T01:11:44;-3.20;99.90
15556;DHT22;7879;48.660;9.116;2022-12-19T01:14:29;-3.10;99.90
15556;DHT22;7879;48.660;9.116;2022-12-19T01:16:56;-3.10;99.90
15556;DHT22;7879;48.660;9.116;2022-12-19T01:19:24;-3.00;99.90
15556;DHT22;7879;48.660;9.116;2022-12-19T01:21:51;-3.00;99.90
15556;DHT22;7879;48.660;9.116;2022-12-19T01:24:18;-3.00;99.90
15556;DHT22;7879;48.660;9.116;2022-12-19T01:26:45;-3.00;99.90
15556;DHT22;7879;48.660;9.116;2022-12-19T01:29:12;-3.00;99.90
15556;DHT22;7879;48.660;9.116;2022-12-19T01:31:39;-3.00;99.90
15556;DHT22;7879;48.660;9.116;2022-12-19T01:34:05;-3.10;99.90
15556;DHT22;7879;48.660;9.116;2022-12-19T01:36:32;-3.10;99.90
15556;DHT22;7879;48.660;9.116;2022-12-19T01:39:05;-3.10;99.90
15556;DHT22;7879;48.660;9.116;2022-12-19T01:41:32;-3.10;99.90
15556;DHT22;7879;48.660;9.116;2022-12-19T01:44:02;-3.10;99.90
15556;DHT22;7879;48.660;9.116;2022-12-19T01:46:40;-3.20;99.90
15556;DHT22;7879;48.660;9.116;2022-12-19T01:49:15;-3.20;99.90
15556;DHT22;7879;48.660;9.116;2022-12-19T01:51:50;-3.20;99.90
15556;DHT22;7879;48.660;9.116;2022-12-19T01:54:25;-3.20;99.90
15556;DHT22;7879;48.660;9.116;2022-12-19T01:56:56;-3.20;99.90
15556;DHT22;7879;48.660;9.116;2022-12-19T01:59:29;-3.20;99.90
15556;DHT22;7879;48.660;9.116;2022-12-19T02:02:08;-3.10;99.90
15556;DHT22;7879;48.660;9.116;2022-12-19T02:04:38;-3.10;99.90
15556;DHT22;7879;48.660;9.116;2022-12-19T02:07:07;-3.00;99.90
15556;DHT22;7879;48.660;9.116;2022-12-19T02:09:46;-2.90;99.90
15556;DHT22;7879;48.660;9.116;2022-12-19T02:12:24;-2.90;99.90
15556;DHT22;7879;48.660;9.116;2022-12-19T02:14:51;-2.80;99.90
15556;DHT22;7879;48.660;9.116;2022-12-19T02:23:13;-2.80;99.90
15556;DHT22;7879;48.660;9.116;2022-12-19T02:29:02;-2.70;99.90
15556;DHT22;7879;48.660;9.116;2022-12-19T02:31:40;-2.80;99.90
15556;DHT22;7879;48.660;9.116;2022-12-19T02:34:18;-2.80;99.90
15556;DHT22;7879;48.660;9.116;2022-12-19T02:42:04;-2.80;99.90
15556;DHT22;7879;48.660;9.116;2022-12-19T02:44:52;-2.90;99.90
15556;DHT22;7879;48.660;9.116;2022-12-19T02:47:20;-2.90;99.90
15556;DHT22;7879;48.660;9.116;2022-12-19T02:49:47;-2.80;99.90
15556;DHT22;7879;48.660;9.116;2022-12-19T02:54:49;-2.70;99.90
15556;DHT22;7879;48.660;9.116;2022-12-19T02:57:27;-2.60;99.90
15556;DHT22;7879;48.660;9.116;2022-12-19T03:02:48;-2.30;99.90
15556;DHT22;7879;48.660;9.116;2022-12-19T03:06:02;-2.10;99.90
15556;DHT22;7879;48.660;9.116;2022-12-19T03:11:12;-2.00;99.90
15556;DHT22;7879;48.660;9.116;2022-12-19T03:13:52;-2.00;99.90
15556;DHT22;7879;48.660;9.116;2022-12-19T03:16:21;-2.00;99.90
15556;DHT22;7879;48.660;9.116;2022-12-19T03:18:48;-2.00;99.90
15556;DHT22;7879;48.660;9.116;2022-12-19T03:21:34;-2.00;99.90
15556;DHT22;7879;48.660;9.116;2022-12-19T03:24:03;-2.00;99.90
15556;DHT22;7879;48.660;9.116;2022-12-19T03:26:35;-2.00;99.90
15556;DHT22;7879;48.660;9.116;2022-12-19T03:29:35;-2.10;99.90
15556;DHT22;7879;48.660;9.116;2022-12-19T03:32:05;-2.10;99.90
15556;DHT22;7879;48.660;9.116;2022-12-19T03:35:05;-2.20;99.90
15556;DHT22;7879;48.660;9.116;2022-12-19T03:37:37;-2.30;99.90
15556;DHT22;7879;48.660;9.116;2022-12-19T03:40:09;-2.20;99.90
15556;DHT22;7879;48.660;9.116;2022-12-19T03:42:39;-2.30;99.90
15556;DHT22;7879;48.660;9.116;2022-12-19T03:45:39;-2.30;99.90
15556;DHT22;7879;48.660;9.116;2022-12-19T03:48:18;-2.30;99.90
15556;DHT22;7879;48.660;9.116;2022-12-19T03:50:57;-2.30;99.90
15556;DHT22;7879;48.660;9.116;2022-12-19T03:56:33;-2.30;99.90
15556;DHT22;7879;48.660;9.116;2022-12-19T03:59:09;-2.30;99.90
15556;DHT22;7879;48.660;9.116;2022-12-19T04:01:39;-2.30;99.90
15556;DHT22;7879;48.660;9.116;2022-12-19T04:04:07;-2.20;99.90
15556;DHT22;7879;48.660;9.116;2022-12-19T04:06:36;-2.20;99.90
15556;DHT22;7879;48.660;9.116;2022-12-19T04:09:04;-2.10;99.90
15556;DHT22;7879;48.660;9.116;2022-12-19T04:11:39;-2.10;99.90
15556;DHT22;7879;48.660;9.116;2022-12-19T04:14:11;-2.10;99.90
15556;DHT22;7879;48.660;9.116;2022-12-19T04:16:47;-2.10;99.90
15556;DHT22;7879;48.660;9.116;2022-12-19T04:21:52;-2.10;99.90
15556;DHT22;7879;48.660;9.116;2022-12-19T04:24:30;-2.10;99.90
15556;DHT22;7879;48.660;9.116;2022-12-19T04:27:00;-2.00;99.90
15556;DHT22;7879;48.660;9.116;2022-12-19T04:29:28;-1.90;99.90
15556;DHT22;7879;48.660;9.116;2022-12-19T04:31:56;-1.90;99.90
15556;DHT22;7879;48.660;9.116;2022-12-19T04:34:23;-1.90;99.90
15556;DHT22;7879;48.660;9.116;2022-12-19T04:36:50;-1.80;99.90
15556;DHT22;7879;48.660;9.116;2022-12-19T04:39:17;-1.60;99.90
15556;DHT22;7879;48.660;9.116;2022-12-19T04:41:44;-1.60;99.90
15556;DHT22;7879;48.660;9.116;2022-12-19T04:44:10;-1.60;99.90
15556;DHT22;7879;48.660;9.116;2022-12-19T04:46:37;-1.60;99.90
15556;DHT22;7879;48.660;9.116;2022-12-19T04:49:04;-1.50;99.90
15556;DHT22;7879;48.660;9.116;2022-12-19T04:51:30;-1.50;99.90
15556;DHT22;7879;48.660;9.116;2022-12-19T04:53:57;-1.50;99.90
15556;DHT22;7879;48.660;9.116;2022-12-19T04:56:24;-1.40;99.90
15556;DHT22;7879;48.660;9.116;2022-12-19T04:58:56;-1.40;99.90
15556;DHT22;7879;48.660;9.116;2022-12-19T05:01:24;-1.40;99.90
15556;DHT22;7879;48.660;9.116;2022-12-19T05:03:51;-1.40;99.90
15556;DHT22;7879;48.660;9.116;2022-12-19T05:06:23;-1.30;99.90
15556;DHT22;7879;48.660;9.116;2022-12-19T05:08:49;-1.30;99.90
15556;DHT22;7879;48.660;9.116;2022-12-19T05:11:16;-1.20;99.90
15556;DHT22;7879;48.660;9.116;2022-12-19T05:13:46;-1.30;99.90
15556;DHT22;7879;48.660;9.116;2022-12-19T05:16:12;-1.30;99.90
15556;DHT22;7879;48.660;9.116;2022-12-19T05:18:41;-1.30;99.90
15556;DHT22;7879;48.660;9.116;2022-12-19T05:21:08;-1.20;99.90
15556;DHT22;7879;48.660;9.116;2022-12-19T05:23:36;-1.30;99.90
15556;DHT22;7879;48.660;9.116;2022-12-19T05:26:05;-1.20;99.90
15556;DHT22;7879;48.660;9.116;2022-12-19T05:28:32;-1.20;99.90
15556;DHT22;7879;48.660;9.116;2022-12-19T05:31:25;-1.30;99.90
15556;DHT22;7879;48.660;9.116;2022-12-19T05:33:50;-1.30;99.90
15556;DHT22;7879;48.660;9.116;2022-12-19T05:36:17;-1.30;99.90
15556;DHT22;7879;48.660;9.116;2022-12-19T05:38:44;-1.20;99.90
15556;DHT22;7879;48.660;9.116;2022-12-19T05:41:14;-1.20;99.90
15556;DHT22;7879;48.660;9.116;2022-12-19T05:43:58;-1.20;99.90
15556;DHT22;7879;48.660;9.116;2022-12-19T05:46:40;-1.20;99.90
15556;DHT22;7879;48.660;9.116;2022-12-19T05:49:20;-1.20;99.90
15556;DHT22;7879;48.660;9.116;2022-12-19T05:52:12;-1.20;99.90
15556;DHT22;7879;48.660;9.116;2022-12-19T05:55:04;-1.20;99.90
15556;DHT22;7879;48.660;9.116;2022-12-19T05:57:56;-1.20;99.90
15556;DHT22;7879;48.660;9.116;2022-12-19T06:01:00;-1.10;99.90
15556;DHT22;7879;48.660;9.116;2022-12-19T06:04:16;-1.20;99.90
15556;DHT22;7879;48.660;9.116;2022-12-19T06:07:39;-1.10;99.90
15556;DHT22;7879;48.660;9.116;2022-12-19T06:14:53;-1.00;99.90
15556;DHT22;7879;48.660;9.116;2022-12-19T06:25:21;-1.00;99.90
15556;DHT22;7879;48.660;9.116;2022-12-19T06:27:48;-1.10;99.90
15556;DHT22;7879;48.660;9.116;2022-12-19T06:30:15;-1.10;99.90
15556;DHT22;7879;48.660;9.116;2022-12-19T06:32:41;-1.10;99.90
15556;DHT22;7879;48.660;9.116;2022-12-19T06:35:08;-1.10;99.90
15556;DHT22;7879;48.660;9.116;2022-12-19T06:37:35;-1.00;99.90
15556;DHT22;7879;48.660;9.116;2022-12-19T06:40:05;-1.00;99.90
15556;DHT22;7879;48.660;9.116;2022-12-19T06:42:32;-1.00;99.90
15556;DHT22;7879;48.660;9.116;2022-12-19T06:44:59;-1.00;99.90
15556;DHT22;7879;48.660;9.116;2022-12-19T06:47:26;-1.00;99.90
15556;DHT22;7879;48.660;9.116;2022-12-19T06:49:53;-0.90;99.90
15556;DHT22;7879;48.660;9.116;2022-12-19T06:52:19;-0.90;99.90
15556;DHT22;7879;48.660;9.116;2022-12-19T06:54:46;-0.90;99.90
15556;DHT22;7879;48.660;9.116;2022-12-19T06:57:13;-0.90;99.90
15556;DHT22;7879;48.660;9.116;2022-12-19T06:59:40;-0.90;99.90
15556;DHT22;7879;48.660;9.116;2022-12-19T07:02:17;-0.90;99.90
15556;DHT22;7879;48.660;9.116;2022-12-19T07:04:50;-0.90;99.90
15556;DHT22;7879;48.660;9.116;2022-12-19T07:07:20;-0.90;99.90
15556;DHT22;7879;48.660;9.116;2022-12-19T07:09:47;-0.90;99.90
15556;DHT22;7879;48.660;9.116;2022-12-19T07:12:14;-0.80;99.90
15556;DHT22;7879;48.660;9.116;2022-12-19T07:14:41;-0.80;99.90
15556;DHT22;7879;48.660;9.116;2022-12-19T07:17:08;-0.80;99.90
15556;DHT22;7879;48.660;9.116;2022-12-19T07:19:35;-0.80;99.90
15556;DHT22;7879;48.660;9.116;2022-12-19T07:22:03;-0.90;99.90
15556;DHT22;7879;48.660;9.116;2022-12-19T07:24:32;-0.80;99.90
15556;DHT22;7879;48.660;9.116;2022-12-19T07:26:59;-0.80;99.90
15556;DHT22;7879;48.660;9.116;2022-12-19T07:29:26;-0.80;99.90
15556;DHT22;7879;48.660;9.116;2022-12-19T07:31:53;-0.90;99.90
15556;DHT22;7879;48.660;9.116;2022-12-19T07:34:20;-0.80;99.90
15556;DHT22;7879;48.660;9.116;2022-12-19T07:36:47;-0.80;99.90
15556;DHT22;7879;48.660;9.116;2022-12-19T07:39:14;-0.70;99.90
15556;DHT22;7879;48.660;9.116;2022-12-19T07:41:41;-0.70;99.90
15556;DHT22;7879;48.660;9.116;2022-12-19T07:44:07;-0.70;99.90
15556;DHT22;7879;48.660;9.116;2022-12-19T07:46:34;-0.70;99.90
15556;DHT22;7879;48.660;9.116;2022-12-19T07:49:01;-0.70;99.90
15556;DHT22;7879;48.660;9.116;2022-12-19T07:51:28;-0.70;99.90
15556;DHT22;7879;48.660;9.116;2022-12-19T07:53:55;-0.70;99.90
15556;DHT22;7879;48.660;9.116;2022-12-19T07:56:21;-0.70;99.90
15556;DHT22;7879;48.660;9.116;2022-12-19T07:58:48;-0.70;99.90
15556;DHT22;7879;48.660;9.116;2022-12-19T08:01:15;-0.70;99.90
15556;DHT22;7879;48.660;9.116;2022-12-19T08:03:42;-0.60;99.90
15556;DHT22;7879;48.660;9.116;2022-12-19T08:06:09;-0.60;99.90
15556;DHT22;7879;48.660;9.116;2022-12-19T08:08:36;-0.60;99.90
15556;DHT22;7879;48.660;9.116;2022-12-19T08:11:12;-0.60;99.90
15556;DHT22;7879;48.660;9.116;2022-12-19T08:13:39;-0.50;99.90
15556;DHT22;7879;48.660;9.116;2022-12-19T08:16:12;-0.50;99.90
15556;DHT22;7879;48.660;9.116;2022-12-19T08:18:39;-0.50;99.90
15556;DHT22;7879;48.660;9.116;2022-12-19T08:21:07;-0.50;99.90
15556;DHT22;7879;48.660;9.116;2022-12-19T08:23:34;-0.50;99.90
15556;DHT22;7879;48.660;9.116;2022-12-19T08:26:04;-0.50;99.90
15556;DHT22;7879;48.660;9.116;2022-12-19T08:28:33;-0.50;99.90
15556;DHT22;7879;48.660;9.116;2022-12-19T08:31:13;-0.50;99.90
15556;DHT22;7879;48.660;9.116;2022-12-19T08:33:41;-0.50;99.90
15556;DHT22;7879;48.660;9.116;2022-12-19T08:36:13;-0.40;99.90
15556;DHT22;7879;48.660;9.116;2022-12-19T08:38:40;-0.40;99.90
15556;DHT22;7879;48.660;9.116;2022-12-19T08:41:07;-0.40;99.90
15556;DHT22;7879;48.660;9.116;2022-12-19T08:43:34;-0.30;99.90
15556;DHT22;7879;48.660;9.116;2022-12-19T08:46:01;-0.30;99.90
15556;DHT22;7879;48.660;9.116;2022-12-19T08:48:29;-0.30;99.90
15556;DHT22;7879;48.660;9.116;2022-12-19T08:51:06;-0.20;99.90
15556;DHT22;7879;48.660;9.116;2022-12-19T08:53:36;-0.20;99.90
15556;DHT22;7879;48.660;9.116;2022-12-19T08:56:15;-0.10;99.90
15556;DHT22;7879;48.660;9.116;2022-12-19T08:58:43;-0.10;99.90
15556;DHT22;7879;48.660;9.116;2022-12-19T09:01:12;-0.10;99.90
15556;DHT22;7879;48.660;9.116;2022-12-19T09:03:40;-0.10;99.90
15556;DHT22;7879;48.660;9.116;2022-12-19T09:06:27;-0.10;99.90
15556;DHT22;7879;48.660;9.116;2022-12-19T09:08:54;-0.10;99.90
15556;DHT22;7879;48.660;9.116;2022-12-19T09:11:26;0.00;99.90
15556;DHT22;7879;48.660;9.116;2022-12-19T09:13:54;0.00;99.90
15556;DHT22;7879;48.660;9.116;2022-12-19T09:16:23;0.00;99.90
15556;DHT22;7879;48.660;9.116;2022-12-19T09:18:52;0.10;99.90
15556;DHT22;7879;48.660;9.116;2022-12-19T09:21:21;0.10;99.90
15556;DHT22;7879;48.660;9.116;2022-12-19T09:23:51;0.20;99.90
15556;DHT22;7879;48.660;9.116;2022-12-19T09:26:19;0.30;99.90
15556;DHT22;7879;48.660;9.116;2022-12-19T09:28:47;0.40;99.90
15556;DHT22;7879;48.660;9.116;2022-12-19T09:31:16;0.40;99.90
15556;DHT22;7879;48.660;9.116;2022-12-19T09:33:44;0.50;99.90
15556;DHT22;7879;48.660;9.116;2022-12-19T09:36:19;0.50;99.90
15556;DHT22;7879;48.660;9.116;2022-12-19T09:38:46;0.60;99.90
15556;DHT22;7879;48.660;9.116;2022-12-19T09:41:30;0.70;99.90
15556;DHT22;7879;48.660;9.116;2022-12-19T09:44:14;0.70;99.90
15556;DHT22;7879;48.660;9.116;2022-12-19T09:46:48;0.70;99.90
15556;DHT22;7879;48.660;9.116;2022-12-19T09:49:22;0.70;99.90
15556;DHT22;7879;48.660;9.116;2022-12-19T09:57:17;0.80;99.90
15556;DHT22;7879;48.660;9.116;2022-12-19T09:59:53;0.90;99.90
15556;DHT22;7879;48.660;9.116;2022-12-19T10:02:43;0.90;99.90
15556;DHT22;7879;48.660;9.116;2022-12-19T10:08:27;1.00;99.90
15556;DHT22;7879;48.660;9.116;2022-12-19T10:14:15;1.10;99.90
15556;DHT22;7879;48.660;9.116;2022-12-19T10:20:13;1.20;99.90
15556;DHT22;7879;48.660;9.116;2022-12-19T10:30:35;1.30;99.90
15556;DHT22;7879;48.660;9.116;2022-12-19T10:34:13;1.30;99.90
15556;DHT22;7879;48.660;9.116;2022-12-19T10:36:06;1.30;99.90
15556;DHT22;7879;48.660;9.116;2022-12-19T10:38:46;1.40;99.90
15556;DHT22;7879;48.660;9.116;2022-12-19T10:41:26;1.40;99.90
15556;DHT22;7879;48.660;9.116;2022-12-19T10:44:05;1.40;99.90
15556;DHT22;7879;48.660;9.116;2022-12-19T10:49:00;1.50;99.90
15556;DHT22;7879;48.660;9.116;2022-12-19T10:51:30;1.50;99.90
15556;DHT22;7879;48.660;9.116;2022-12-19T10:53:59;1.50;99.90
15556;DHT22;7879;48.660;9.116;2022-12-19T10:56:28;1.60;99.90
15556;DHT22;7879;48.660;9.116;2022-12-19T10:59:03;1.60;99.90
15556;DHT22;7879;48.660;9.116;2022-12-19T11:01:41;1.70;99.90
15556;DHT22;7879;48.660;9.116;2022-12-19T11:04:32;1.70;99.90
15556;DHT22;7879;48.660;9.116;2022-12-19T11:09:38;1.90;99.90
15556;DHT22;7879;48.660;9.116;2022-12-19T11:18:07;2.20;99.90
15556;DHT22;7879;48.660;9.116;2022-12-19T11:21:03;2.20;99.90
15556;DHT22;7879;48.660;9.116;2022-12-19T11:23:54;2.40;99.90
15556;DHT22;7879;48.660;9.116;2022-12-19T11:26:50;2.70;99.90
15556;DHT22;7879;48.660;9.116;2022-12-19T11:35:23;3.00;99.90
15556;DHT22;7879;48.660;9.116;2022-12-19T11:38:03;3.20;99.90
15556;DHT22;7879;48.660;9.116;2022-12-19T11:40:45;3.20;99.90
15556;DHT22;7879;48.660;9.116;2022-12-19T11:43:34;3.20;99.90
15556;DHT22;7879;48.660;9.116;2022-12-19T11:52:02;3.10;99.90
15556;DHT22;7879;48.660;9.116;2022-12-19T11:54:35;3.20;99.90
15556;DHT22;7879;48.660;9.116;2022-12-19T11:57:03;3.10;99.90
15556;DHT22;7879;48.660;9.116;2022-12-19T11:59:34;3.10;99.90
15556;DHT22;7879;48.660;9.116;2022-12-19T12:11:02;3.10;99.90
15556;DHT22;7879;48.660;9.116;2022-12-19T12:17:21;3.10;99.90
15556;DHT22;7879;48.660;9.116;2022-12-19T12:23:27;3.10;99.90
15556;DHT22;7879;48.660;9.116;2022-12-19T12:27:02;3.20;99.90
15556;DHT22;7879;48.660;9.116;2022-12-19T12:29:47;3.30;99.90
15556;DHT22;7879;48.660;9.116;2022-12-19T12:35:59;3.30;99.90
15556;DHT22;7879;48.660;9.116;2022-12-19T12:39:18;3.30;99.90
15556;DHT22;7879;48.660;9.116;2022-12-19T12:44:35;3.30;99.90
15556;DHT22;7879;48.660;9.116;2022-12-19T12:47:24;3.30;99.90
15556;DHT22;7879;48.660;9.116;2022-12-19T12:49:58;3.40;99.90
15556;DHT22;7879;48.660;9.116;2022-12-19T12:52:36;3.30;99.90
15556;DHT22;7879;48.660;9.116;2022-12-19T12:55:11;3.30;99.90
15556;DHT22;7879;48.660;9.116;2022-12-19T12:57:40;3.30;99.90
15556;DHT22;7879;48.660;9.116;2022-12-19T13:00:23;3.30;99.90
15556;DHT22;7879;48.660;9.116;2022-12-19T13:02:57;3.40;99.90
15556;DHT22;7879;48.660;9.116;2022-12-19T13:05:35;3.40;99.90
15556;DHT22;7879;48.660;9.116;2022-12-19T13:08:38;3.40;99.90
15556;DHT22;7879;48.660;9.116;2022-12-19T13:14:39;3.40;99.90
15556;DHT22;7879;48.660;9.116;2022-12-19T13:16:53;3.40;99.90
15556;DHT22;7879;48.660;9.116;2022-12-19T13:19:25;3.50;99.90
15556;DHT22;7879;48.660;9.116;2022-12-19T13:30:18;3.30;99.90
15556;DHT22;7879;48.660;9.116;2022-12-19T13:40:58;3.20;99.90
15556;DHT22;7879;48.660;9.116;2022-12-19T13:43:35;3.20;99.90
15556;DHT22;7879;48.660;9.116;2022-12-19T13:46:27;3.20;99.90
15556;DHT22;7879;48.660;9.116;2022-12-19T13:49:09;3.20;99.90
15556;DHT22;7879;48.660;9.116;2022-12-19T13:51:46;3.10;99.90
15556;DHT22;7879;48.660;9.116;2022-12-19T13:54:27;3.10;99.90
15556;DHT22;7879;48.660;9.116;2022-12-19T13:56:58;3.10;99.90
15556;DHT22;7879;48.660;9.116;2022-12-19T13:59:37;3.00;99.90
15556;DHT22;7879;48.660;9.116;2022-12-19T14:02:09;3.10;99.90
15556;DHT22;7879;48.660;9.116;2022-12-19T14:04:43;3.00;99.90
15556;DHT22;7879;48.660;9.116;2022-12-19T14:10:13;3.00;99.90
15556;DHT22;7879;48.660;9.116;2022-12-19T14:13:04;3.00;99.90
15556;DHT22;7879;48.660;9.116;2022-12-19T14:16:15;3.00;99.90
15556;DHT22;7879;48.660;9.116;2022-12-19T14:18:47;2.90;99.90
15556;DHT22;7879;48.660;9.116;2022-12-19T14:24:18;2.90;99.90
15556;DHT22;7879;48.660;9.116;2022-12-19T14:26:57;2.90;99.90
15556;DHT22;7879;48.660;9.116;2022-12-19T14:29:50;2.80;99.90
15556;DHT22;7879;48.660;9.116;2022-12-19T14:32:39;2.80;99.90
15556;DHT22;7879;48.660;9.116;2022-12-19T14:35:30;2.80;99.90
15556;DHT22;7879;48.660;9.116;2022-12-19T14:38:21;2.90;99.90
15556;DHT22;7879;48.660;9.116;2022-12-19T14:41:31;2.80;99.90
15556;DHT22;7879;48.660;9.116;2022-12-19T14:44:51;2.80;99.90
15556;DHT22;7879;48.660;9.116;2022-12-19T14:47:39;2.80;99.90
15556;DHT22;7879;48.660;9.116;2022-12-19T14:50:35;2.80;99.90
15556;DHT22;7879;48.660;9.116;2022-12-19T14:53:23;2.90;99.90
15556;DHT22;7879;48.660;9.116;2022-12-19T14:56:12;3.00;99.90
15556;DHT22;7879;48.660;9.116;2022-12-19T14:59:00;3.00;99.90
15556;DHT22;7879;48.660;9.116;2022-12-19T15:01:30;2.90;99.90
15556;DHT22;7879;48.660;9.116;2022-12-19T15:04:02;2.90;99.90
15556;DHT22;7879;48.660;9.116;2022-12-19T15:06:52;2.80;99.90
15556;DHT22;7879;48.660;9.116;2022-12-19T15:09:51;2.70;99.90
15556;DHT22;7879;48.660;9.116;2022-12-19T15:16:29;2.70;99.90
15556;DHT22;7879;48.660;9.116;2022-12-19T15:18:58;2.70;99.90
15556;DHT22;7879;48.660;9.116;2022-12-19T15:21:30;2.60;99.90
15556;DHT22;7879;48.660;9.116;2022-12-19T15:23:57;2.60;99.90
15556;DHT22;7879;48.660;9.116;2022-12-19T15:26:33;2.50;99.90
15556;DHT22;7879;48.660;9.116;2022-12-19T15:29:01;2.40;99.90
15556;DHT22;7879;48.660;9.116;2022-12-19T15:34:23;2.40;99.90
15556;DHT22;7879;48.660;9.116;2022-12-19T15:37:15;2.40;99.90
15556;DHT22;7879;48.660;9.116;2022-12-19T15:39:43;2.40;99.90
15556;DHT22;7879;48.660;9.116;2022-12-19T15:42:17;2.40;99.90
15556;DHT22;7879;48.660;9.116;2022-12-19T15:44:46;2.40;99.90
15556;DHT22;7879;48.660;9.116;2022-12-19T15:47:17;2.40;99.90
15556;DHT22;7879;48.660;9.116;2022-12-19T15:49:45;2.40;99.90
15556;DHT22;7879;48.660;9.116;2022-12-19T15:52:20;2.40;99.90
15556;DHT22;7879;48.660;9.116;2022-12-19T15:54:47;2.50;99.90
15556;DHT22;7879;48.660;9.116;2022-12-19T15:57:31;2.40;99.90
15556;DHT22;7879;48.660;9.116;2022-12-19T16:00:04;2.20;99.90
15556;DHT22;7879;48.660;9.116;2022-12-19T16:02:33;2.20;99.90
15556;DHT22;7879;48.660;9.116;2022-12-19T16:05:22;2.10;99.90
15556;DHT22;7879;48.660;9.116;2022-12-19T16:07:49;2.10;99.90
15556;DHT22;7879;48.660;9.116;2022-12-19T16:10:16;2.10;99.90
15556;DHT22;7879;48.660;9.116;2022-12-19T16:12:46;2.10;99.90
15556;DHT22;7879;48.660;9.116;2022-12-19T16:17:47;1.90;99.90
15556;DHT22;7879;48.660;9.116;2022-12-19T16:20:23;1.90;99.90
15556;DHT22;7879;48.660;9.116;2022-12-19T16:22:50;1.90;99.90
15556;DHT22;7879;48.660;9.116;2022-12-19T16:25:18;1.80;99.90
15556;DHT22;7879;48.660;9.116;2022-12-19T16:27:49;1.80;99.90
15556;DHT22;7879;48.660;9.116;2022-12-19T16:30:38;1.80;99.90
15556;DHT22;7879;48.660;9.116;2022-12-19T16:33:22;1.80;99.90
15556;DHT22;7879;48.660;9.116;2022-12-19T16:35:50;1.90;99.90
15556;DHT22;7879;48.660;9.116;2022-12-19T16:38:34;1.90;99.90
15556;DHT22;7879;48.660;9.116;2022-12-19T16:41:01;2.00;99.90
15556;DHT22;7879;48.660;9.116;2022-12-19T16:43:36;2.00;99.90
15556;DHT22;7879;48.660;9.116;2022-12-19T16:46:04;2.00;99.90
15556;DHT22;7879;48.660;9.116;2022-12-19T16:48:32;2.00;99.90
15556;DHT22;7879;48.660;9.116;2022-12-19T16:51:01;1.90;99.90
15556;DHT22;7879;48.660;9.116;2022-12-19T16:53:28;1.80;99.90
15556;DHT22;7879;48.660;9.116;2022-12-19T16:55:55;1.80;99.90
15556;DHT22;7879;48.660;9.116;2022-12-19T16:58:27;1.70;99.90
15556;DHT22;7879;48.660;9.116;2022-12-19T17:00:54;1.60;99.90
15556;DHT22;7879;48.660;9.116;2022-12-19T17:05:51;1.50;99.90
15556;DHT22;7879;48.660;9.116;2022-12-19T17:08:18;1.50;99.90
15556;DHT22;7879;48.660;9.116;2022-12-19T17:10:46;1.40;99.90
15556;DHT22;7879;48.660;9.116;2022-12-19T17:13:14;1.40;99.90
15556;DHT22;7879;48.660;9.116;2022-12-19T17:15:43;1.30;99.90
15556;DHT22;7879;48.660;9.116;2022-12-19T17:18:32;1.30;99.90
15556;DHT22;7879;48.660;9.116;2022-12-19T17:20:59;1.30;99.90
15556;DHT22;7879;48.660;9.116;2022-12-19T17:23:29;1.30;99.90
15556;DHT22;7879;48.660;9.116;2022-12-19T17:25:56;1.30;99.90
15556;DHT22;7879;48.660;9.116;2022-12-19T17:28:26;1.50;99.90
15556;DHT22;7879;48.660;9.116;2022-12-19T17:30:55;1.70;99.90
15556;DHT22;7879;48.660;9.116;2022-12-19T17:33:27;1.80;99.90
15556;DHT22;7879;48.660;9.116;2022-12-19T17:35:59;1.60;99.90
15556;DHT22;7879;48.660;9.116;2022-12-19T17:38:27;1.30;99.90
15556;DHT22;7879;48.660;9.116;2022-12-19T17:40:53;1.20;99.90
15556;DHT22;7879;48.660;9.116;2022-12-19T17:43:20;1.10;99.90
15556;DHT22;7879;48.660;9.116;2022-12-19T17:45:49;1.10;99.90
15556;DHT22;7879;48.660;9.116;2022-12-19T17:48:28;1.00;99.90
15556;DHT22;7879;48.660;9.116;2022-12-19T17:50:57;1.00;99.90
15556;DHT22;7879;48.660;9.116;2022-12-19T17:53:24;1.00;99.90
15556;DHT22;7879;48.660;9.116;2022-12-19T17:55:51;1.00;99.90
15556;DHT22;7879;48.660;9.116;2022-12-19T17:58:18;1.00;99.90
15556;DHT22;7879;48.660;9.116;2022-12-19T18:00:45;1.00;99.90
15556;DHT22;7879;48.660;9.116;2022-12-19T18:03:21;0.90;99.90
15556;DHT22;7879;48.660;9.116;2022-12-19T18:05:50;1.00;99.90
15556;DHT22;7879;48.660;9.116;2022-12-19T18:08:26;1.00;99.90
15556;DHT22;7879;48.660;9.116;2022-12-19T18:10:55;1.00;99.90
15556;DHT22;7879;48.660;9.116;2022-12-19T18:13:23;0.90;99.90
15556;DHT22;7879;48.660;9.116;2022-12-19T18:15:51;0.90;99.90
15556;DHT22;7879;48.660;9.116;2022-12-19T18:18:26;0.90;99.90
15556;DHT22;7879;48.660;9.116;2022-12-19T18:20:53;0.90;99.90
15556;DHT22;7879;48.660;9.116;2022-12-19T18:23:21;0.90;99.90
15556;DHT22;7879;48.660;9.116;2022-12-19T18:25:49;0.90;99.90
15556;DHT22;7879;48.660;9.116;2022-12-19T18:28:21;0.90;99.90
15556;DHT22;7879;48.660;9.116;2022-12-19T18:30:49;0.80;99.90
15556;DHT22;7879;48.660;9.116;2022-12-19T18:33:21;0.90;99.90
15556;DHT22;7879;48.660;9.116;2022-12-19T18:35:49;0.90;99.90
15556;DHT22;7879;48.660;9.116;2022-12-19T18:38:19;0.90;99.90
15556;DHT22;7879;48.660;9.116;2022-12-19T18:40:47;0.90;99.90
15556;DHT22;7879;48.660;9.116;2022-12-19T18:43:16;0.90;99.90
15556;DHT22;7879;48.660;9.116;2022-12-19T18:45:46;0.90;99.90
15556;DHT22;7879;48.660;9.116;2022-12-19T18:48:19;0.90;99.90
15556;DHT22;7879;48.660;9.116;2022-12-19T18:50:48;0.90;99.90
15556;DHT22;7879;48.660;9.116;2022-12-19T18:53:17;0.90;99.90
15556;DHT22;7879;48.660;9.116;2022-12-19T18:55:44;0.90;99.90
15556;DHT22;7879;48.660;9.116;2022-12-19T18:58:12;0.90;99.90
15556;DHT22;7879;48.660;9.116;2022-12-19T19:00:39;0.90;99.90
15556;DHT22;7879;48.660;9.116;2022-12-19T19:03:14;0.90;99.90